メインページ
METAR-TAF:

METAR-TAF

空港 :

ヌメア国際空港, ニューカレドニア

緯度: 22-01S, 経度: 166-13E, 海抜: 16m

現時点の気象観測

当レポートは20分前の00:00(UTC)に作成
南/南西の風 8kt、南/南東から西/南西の間で変化する
気温 24°C
湿度 50%
気圧 1016 hPa
視程10km以上
高度4600ftの雲はほとんどない
高度5600ftの曇り

METAR: NWWW 210000Z AUTO 20008KT 160V250 9999 FEW046 OVC056 24/13 Q1016 NOSIG

時間: 11:20 (00:20 UTC)

予報

当レポートは1時間20分前の23:00(UTC)に作成
予報は21日の 00時(UTC)から 21日の 24時(UTC)まで有効
変向風 2kt
視程10km以上
高度4500ftの千切れ雲あり
21日の 00時(UTC)から 21日の 02時(UTC)まで徐々に
南/南西の風 8kt
21日の 06時(UTC)から 21日の 08時(UTC)まで徐々に
変向風 2kt
21日の 16時(UTC)から 21日の 24時(UTC)まで一時的に
高度1800ftの雲はほとんどない
にわか雨
確率 40% :
21日の 18時(UTC)から 21日の 24時(UTC)まで一時的に
視程: 4000m
高度1200ftの千切れ雲あり
高度1500ftの雲は散在している, 塔状積雲.
にわか雨
21日の 21時(UTC)から 21日の 24時(UTC)まで徐々に
南/南東の風 16kt

TAF: NWWW 202300Z 2100/2124 VRB02KT 9999 BKN045 BECMG 2100/2102 20008KT BECMG 2106/2108 VRB02KT TEMPO 2116/2124 SHRA FEW018 PROB40 TEMPO 2118/2124 4000 SHRA BKN012 SCT015TCU BECMG 2121/2124 16016KT

4,000以上の空港の気象観測と天気予報(METAR報とTAF報)

利用可能な観測所は地図上に黄色い丸と赤い丸で示す。

丸の上にカーソルを重ねると観測所名を参照できる。

次にクリックすると気象観測と天気予報を参照できる。

マップの切り替え:黒色「×」印の緑ボタンをクリックして拡大、「-」印の緑ボタンをクリックして縮小、緑色の三角印をクリックして隣りの地図に切り替え


METAR-TAF: